createdAt,value
2018-11-29T00:00:34.327Z,29.92
2018-11-29T00:03:02.751Z,26.48
2018-11-29T00:05:31.270Z,31.60
2018-11-29T00:07:59.639Z,32.38
2018-11-29T00:10:28.027Z,29.55
2018-11-29T00:12:56.364Z,33.73
2018-11-29T00:15:24.726Z,27.58
2018-11-29T00:17:53.150Z,32.03
2018-11-29T00:20:21.531Z,28.47
2018-11-29T00:22:50.595Z,30.40
2018-11-29T00:25:19.519Z,29.42
2018-11-29T00:27:48.067Z,28.60
2018-11-29T00:30:21.219Z,33.98
2018-11-29T00:32:49.961Z,28.80
2018-11-29T00:35:18.520Z,26.60
2018-11-29T00:37:47.009Z,29.20
2018-11-29T00:40:23.662Z,30.35
2018-11-29T00:42:52.235Z,36.15
2018-11-29T00:45:22.523Z,27.27
2018-11-29T00:47:51.143Z,28.17
2018-11-29T00:50:20.048Z,29.77
2018-11-29T00:52:49.198Z,31.90
2018-11-29T00:55:19.328Z,29.63
2018-11-29T00:57:47.718Z,28.25
2018-11-29T01:00:20.024Z,28.07
2018-11-29T01:02:48.515Z,34.65
2018-11-29T01:05:16.875Z,29.92
2018-11-29T01:07:45.283Z,29.37
2018-11-29T01:10:14.524Z,26.33
2018-11-29T01:12:43.028Z,27.22
2018-11-29T01:15:19.069Z,27.20
2018-11-29T01:17:48.191Z,27.10
2018-11-29T01:20:17.610Z,27.90
2018-11-29T01:22:46.013Z,25.32
2018-11-29T01:25:14.997Z,25.17
2018-11-29T01:27:44.383Z,27.67
2018-11-29T01:30:16.330Z,28.25
2018-11-29T01:32:44.742Z,28.02
2018-11-29T01:35:15.106Z,28.90
2018-11-29T01:37:43.482Z,28.47
2018-11-29T01:40:17.487Z,29.32
2018-11-29T01:43:02.030Z,28.98
2018-11-29T01:45:30.430Z,28.00
2018-11-29T01:47:58.822Z,25.85
2018-11-29T01:50:27.179Z,27.85
2018-11-29T01:52:55.593Z,25.55
2018-11-29T01:55:23.962Z,28.42
2018-11-29T01:57:52.373Z,27.50
2018-11-29T02:00:20.752Z,25.77
2018-11-29T02:02:52.675Z,29.48
2018-11-29T02:05:21.118Z,27.93
2018-11-29T02:07:49.532Z,24.57
2018-11-29T02:10:23.341Z,24.35
2018-11-29T02:12:52.134Z,26.80
2018-11-29T02:15:20.495Z,27.07
2018-11-29T02:17:48.853Z,29.10
2018-11-29T02:20:17.950Z,28.02
2018-11-29T02:22:46.565Z,28.05
2018-11-29T02:25:14.995Z,27.22
2018-11-29T02:27:43.322Z,28.90
2018-11-29T02:30:20.259Z,31.57
2018-11-29T02:32:48.654Z,26.15
2018-11-29T02:35:17.171Z,27.07
2018-11-29T02:37:45.525Z,32.28
2018-11-29T02:40:14.850Z,28.07
2018-11-29T02:42:43.495Z,25.60
2018-11-29T02:45:13.107Z,28.83
2018-11-29T02:47:41.490Z,28.25
2018-11-29T02:50:10.667Z,25.97
2018-11-29T02:52:39.006Z,26.45
2018-11-29T02:55:10.283Z,26.15
2018-11-29T02:57:38.695Z,28.87
2018-11-29T03:00:13.153Z,32.40
2018-11-29T03:02:41.598Z,27.87
2018-11-29T03:05:10.100Z,27.45
2018-11-29T03:07:38.541Z,25.45
2018-11-29T03:10:09.035Z,26.80
2018-11-29T03:12:37.402Z,27.10
2018-11-29T03:15:10.035Z,27.55
2018-11-29T03:17:38.475Z,26.95
2018-11-29T03:20:08.500Z,30.30
2018-11-29T03:22:36.821Z,27.00
2018-11-29T03:25:09.053Z,26.05
2018-11-29T03:27:37.436Z,26.80
2018-11-29T03:30:08.573Z,28.87
2018-11-29T03:32:36.917Z,24.72
2018-11-29T03:35:05.322Z,27.67
2018-11-29T03:37:33.685Z,31.05
2018-11-29T03:40:02.088Z,26.68
2018-11-29T03:42:30.450Z,27.62
2018-11-29T03:44:58.941Z,29.05
2018-11-29T03:47:27.405Z,30.68
2018-11-29T03:49:55.763Z,28.45
2018-11-29T03:52:24.147Z,29.15
2018-11-29T03:54:52.523Z,33.25
2018-11-29T03:57:20.867Z,28.10
2018-11-29T03:59:49.216Z,28.42
2018-11-29T04:02:17.579Z,29.42
2018-11-29T04:04:45.935Z,27.07
2018-11-29T04:07:14.295Z,30.70
2018-11-29T04:09:42.662Z,28.10
2018-11-29T04:12:11.004Z,32.30
2018-11-29T04:14:39.409Z,30.43
2018-11-29T04:17:07.777Z,30.25
2018-11-29T04:19:36.211Z,29.02
2018-11-29T04:22:04.626Z,25.57
2018-11-29T04:24:32.969Z,29.15
2018-11-29T04:27:01.332Z,27.22
2018-11-29T04:29:29.707Z,30.92
2018-11-29T04:31:58.226Z,28.20
2018-11-29T04:34:26.606Z,29.77
2018-11-29T04:36:54.983Z,31.65
2018-11-29T04:39:23.344Z,29.82
2018-11-29T04:41:51.703Z,28.85
2018-11-29T04:44:20.036Z,30.80
2018-11-29T04:46:50.523Z,36.28
2018-11-29T04:49:18.925Z,29.95
2018-11-29T04:51:47.414Z,28.10
2018-11-29T04:54:15.753Z,30.37
2018-11-29T04:56:44.138Z,29.85
2018-11-29T04:59:12.526Z,28.98
2018-11-29T05:01:40.889Z,32.23
2018-11-29T05:04:09.301Z,36.00
2018-11-29T05:06:37.642Z,32.63
2018-11-29T05:09:08.678Z,31.80
2018-11-29T05:11:37.427Z,35.98
2018-11-29T05:14:06.071Z,33.53
2018-11-29T05:16:34.435Z,33.30
2018-11-29T05:19:02.791Z,33.78
2018-11-29T05:21:31.192Z,33.08
2018-11-29T05:23:59.565Z,33.92
2018-11-29T05:26:27.936Z,38.42
2018-11-29T05:28:56.327Z,34.50
2018-11-29T05:31:24.706Z,32.60
2018-11-29T05:33:53.068Z,32.42
2018-11-29T05:36:21.419Z,32.15
2018-11-29T05:38:49.800Z,33.70
2018-11-29T05:41:18.177Z,33.85
2018-11-29T05:43:46.809Z,35.05
2018-11-29T05:46:15.242Z,35.60
2018-11-29T05:48:43.693Z,32.25
2018-11-29T05:51:12.031Z,35.52
2018-11-29T05:53:40.525Z,32.30
2018-11-29T05:56:08.902Z,31.50
2018-11-29T05:58:37.237Z,36.15
2018-11-29T06:01:11.757Z,33.40
2018-11-29T06:03:40.167Z,33.75
2018-11-29T06:06:08.531Z,32.13
2018-11-29T06:08:36.877Z,32.13
2018-11-29T06:11:05.546Z,34.15
2018-11-29T06:13:33.931Z,32.10
2018-11-29T06:16:02.305Z,28.83
2018-11-29T06:18:30.668Z,26.05
2018-11-29T06:20:59.033Z,31.00
2018-11-29T06:23:27.430Z,29.92
2018-11-29T06:25:55.804Z,33.10
2018-11-29T06:28:24.169Z,30.20
2018-11-29T06:30:52.527Z,30.60
2018-11-29T06:33:20.905Z,33.78
2018-11-29T06:35:49.295Z,30.88
2018-11-29T06:38:17.756Z,32.88
2018-11-29T06:40:46.170Z,29.05
2018-11-29T06:43:14.535Z,28.73
2018-11-29T06:45:42.876Z,26.40
2018-11-29T06:48:11.264Z,30.35
2018-11-29T06:50:39.674Z,29.92
2018-11-29T06:53:13.422Z,30.27
2018-11-29T06:55:41.807Z,34.18
2018-11-29T06:58:10.218Z,31.90
2018-11-29T07:00:38.578Z,31.70
2018-11-29T07:03:06.999Z,28.23
2018-11-29T07:05:35.372Z,31.90
2018-11-29T07:08:03.769Z,30.20
2018-11-29T07:10:32.151Z,31.87
2018-11-29T07:13:00.795Z,33.23
2018-11-29T07:15:29.151Z,28.42
2018-11-29T07:17:57.611Z,26.68
2018-11-29T07:20:25.958Z,30.90
2018-11-29T07:22:54.402Z,45.25
2018-11-29T07:25:22.818Z,31.35
2018-11-29T07:27:51.160Z,33.80
2018-11-29T07:30:19.886Z,31.10
2018-11-29T07:32:48.210Z,30.72
2018-11-29T07:35:17.084Z,34.00
2018-11-29T07:37:45.430Z,29.60
2018-11-29T07:40:16.790Z,33.33
2018-11-29T07:42:46.145Z,33.25
2018-11-29T07:45:16.546Z,31.12
2018-11-29T07:47:45.365Z,32.75
2018-11-29T07:50:14.860Z,30.23
2018-11-29T07:52:43.353Z,30.15
2018-11-29T07:55:19.842Z,33.40
2018-11-29T07:57:49.474Z,27.93
2018-11-29T08:00:18.016Z,29.55
2018-11-29T08:02:46.401Z,25.10
2018-11-29T08:05:15.517Z,30.80
2018-11-29T08:07:47.705Z,31.75
2018-11-29T08:10:17.155Z,33.00
2018-11-29T08:12:45.623Z,27.37
2018-11-29T08:15:15.175Z,31.65
2018-11-29T08:17:43.545Z,30.50
2018-11-29T08:20:16.922Z,27.98
2018-11-29T08:22:45.374Z,27.20
2018-11-29T08:25:13.769Z,28.47
2018-11-29T08:27:42.187Z,31.40
2018-11-29T08:30:13.251Z,31.10
2018-11-29T08:32:42.058Z,30.80
2018-11-29T08:35:12.288Z,29.52
2018-11-29T08:37:42.699Z,32.28
2018-11-29T08:40:14.515Z,33.23
2018-11-29T08:42:42.974Z,27.65
2018-11-29T08:45:11.879Z,32.63
2018-11-29T08:47:40.648Z,32.90
2018-11-29T08:50:11.006Z,31.60
2018-11-29T08:52:39.852Z,29.52
2018-11-29T08:55:15.250Z,30.25
2018-11-29T08:57:43.727Z,29.27
2018-11-29T09:00:13.993Z,29.30
2018-11-29T09:02:42.741Z,30.15
2018-11-29T09:05:11.824Z,33.28
2018-11-29T09:07:40.248Z,34.70
2018-11-29T09:10:12.841Z,35.92
2018-11-29T09:12:41.374Z,40.23
2018-11-29T09:15:11.812Z,33.73
2018-11-29T09:17:40.283Z,30.00
2018-11-29T09:20:10.303Z,27.20
2018-11-29T09:22:38.740Z,33.80
2018-11-29T09:25:09.230Z,39.70
2018-11-29T09:27:37.662Z,31.73
2018-11-29T09:30:13.768Z,33.92
2018-11-29T09:32:42.691Z,28.40
2018-11-29T09:35:11.146Z,24.35
2018-11-29T09:37:39.548Z,31.87
2018-11-29T09:40:13.036Z,28.05
2018-11-29T09:42:41.502Z,28.15
2018-11-29T09:45:13.987Z,28.80
2018-11-29T09:47:42.667Z,25.23
2018-11-29T09:50:13.103Z,27.40
2018-11-29T09:52:41.559Z,24.57
2018-11-29T09:55:13.734Z,26.17
2018-11-29T09:57:42.610Z,36.63
2018-11-29T10:00:12.695Z,33.48
2018-11-29T10:02:41.406Z,28.57
2018-11-29T10:05:10.755Z,32.28
2018-11-29T10:07:39.120Z,27.58
2018-11-29T10:10:09.360Z,28.55
2018-11-29T10:12:37.790Z,27.10
2018-11-29T10:15:08.323Z,28.02
2018-11-29T10:17:36.726Z,27.65
2018-11-29T10:20:06.944Z,26.30
2018-11-29T10:22:35.263Z,25.80
2018-11-29T10:25:03.996Z,25.05
2018-11-29T10:27:32.393Z,26.60
2018-11-29T10:30:00.750Z,26.43
2018-11-29T10:32:29.122Z,24.90
2018-11-29T10:34:57.490Z,24.00
2018-11-29T10:37:25.822Z,24.90
2018-11-29T10:39:54.182Z,25.85
2018-11-29T10:42:22.533Z,25.07
2018-11-29T10:44:50.918Z,28.67
2018-11-29T10:47:19.326Z,30.10
2018-11-29T10:49:47.746Z,30.37
2018-11-29T10:52:16.145Z,26.63
2018-11-29T10:54:44.488Z,25.93
2018-11-29T10:57:12.878Z,24.90
2018-11-29T10:59:41.226Z,24.47
2018-11-29T11:02:14.407Z,25.23
2018-11-29T11:04:42.750Z,26.90
2018-11-29T11:07:11.154Z,26.20
2018-11-29T11:09:39.491Z,24.50
2018-11-29T11:12:07.867Z,24.00
2018-11-29T11:14:36.306Z,25.30
2018-11-29T11:17:04.607Z,29.40
2018-11-29T11:19:33.044Z,24.87
2018-11-29T11:22:01.413Z,23.70
2018-11-29T11:24:29.800Z,24.60
2018-11-29T11:26:58.175Z,26.90
2018-11-29T11:29:26.555Z,24.30
2018-11-29T11:31:54.982Z,26.27
2018-11-29T11:34:23.490Z,22.33
2018-11-29T11:36:51.854Z,28.30
2018-11-29T11:39:20.262Z,24.50
2018-11-29T11:41:48.610Z,24.60
2018-11-29T11:44:17.004Z,20.57
2018-11-29T11:46:45.508Z,25.50
2018-11-29T11:49:13.849Z,25.63
2018-11-29T11:51:42.299Z,25.30
2018-11-29T11:54:10.678Z,26.67
2018-11-29T11:56:39.155Z,24.27
2018-11-29T11:59:07.637Z,24.90
2018-11-29T12:01:35.998Z,27.80
2018-11-29T12:04:04.446Z,25.63
2018-11-29T12:06:32.896Z,28.50
2018-11-29T12:09:01.276Z,22.40
2018-11-29T12:11:31.167Z,25.93
2018-11-29T12:13:58.014Z,22.30
2018-11-29T12:16:26.485Z,24.83
2018-11-29T12:18:54.847Z,26.93
2018-11-29T12:21:23.311Z,25.33
2018-11-29T12:23:51.666Z,23.33
2018-11-29T12:26:20.183Z,25.50
2018-11-29T12:28:48.655Z,26.70
2018-11-29T12:31:17.103Z,23.13
2018-11-29T12:33:45.593Z,23.50
2018-11-29T12:36:13.961Z,23.50
2018-11-29T12:38:42.338Z,21.80
2018-11-29T12:41:10.786Z,25.57
2018-11-29T12:43:39.215Z,23.67
2018-11-29T12:46:07.675Z,24.47
2018-11-29T12:48:36.118Z,25.33
2018-11-29T12:51:04.713Z,35.17
2018-11-29T12:53:33.221Z,33.53
2018-11-29T12:56:01.735Z,29.03
2018-11-29T12:58:30.252Z,29.07
2018-11-29T13:00:58.757Z,28.40
2018-11-29T13:03:27.220Z,22.80
2018-11-29T13:05:55.629Z,22.87
2018-11-29T13:08:24.906Z,24.20
2018-11-29T13:10:53.315Z,28.47
2018-11-29T13:13:21.798Z,24.50
2018-11-29T13:15:50.221Z,27.20
2018-11-29T13:18:18.562Z,25.27
2018-11-29T13:20:47.075Z,27.13
2018-11-29T13:23:15.460Z,25.90
2018-11-29T13:25:43.907Z,28.80
2018-11-29T13:28:12.335Z,21.10
2018-11-29T13:30:40.781Z,23.20
2018-11-29T13:33:09.968Z,24.23
2018-11-29T13:35:38.357Z,22.53
2018-11-29T13:38:14.439Z,29.93
2018-11-29T13:40:45.109Z,22.30
2018-11-29T13:43:13.690Z,22.80
2018-11-29T13:45:42.371Z,24.07
2018-11-29T13:48:12.153Z,22.40
2018-11-29T13:50:40.744Z,25.50
2018-11-29T13:53:09.124Z,27.57
2018-11-29T13:55:37.698Z,24.40
2018-11-29T13:58:06.149Z,26.30
2018-11-29T14:00:34.835Z,23.17
2018-11-29T14:03:06.169Z,30.37
2018-11-29T14:05:34.817Z,26.53
2018-11-29T14:08:03.327Z,35.93
2018-11-29T14:10:31.758Z,32.07
2018-11-29T14:13:00.292Z,28.30
2018-11-29T14:15:29.188Z,31.83
2018-11-29T14:17:57.572Z,27.20
2018-11-29T14:20:25.943Z,28.37
2018-11-29T14:22:54.388Z,25.97
2018-11-29T14:25:22.790Z,26.93
2018-11-29T14:27:52.810Z,27.23
2018-11-29T14:30:23.215Z,32.90
2018-11-29T14:32:52.225Z,26.23
2018-11-29T14:35:20.912Z,26.90
2018-11-29T14:37:49.383Z,19.80
2018-11-29T14:40:21.631Z,25.67
2018-11-29T14:42:50.568Z,27.43
2018-11-29T14:45:20.842Z,28.80
2018-11-29T14:47:49.272Z,27.40
2018-11-29T14:50:21.913Z,29.50
2018-11-29T14:52:50.332Z,28.73
2018-11-29T14:55:18.752Z,33.10
2018-11-29T14:57:47.191Z,29.83
2018-11-29T15:00:15.683Z,30.30
2018-11-29T15:02:44.079Z,29.83
2018-11-29T15:05:21.003Z,30.67
2018-11-29T15:07:49.464Z,26.33
2018-11-29T15:10:17.837Z,30.07
2018-11-29T15:12:46.292Z,40.00
2018-11-29T15:15:14.727Z,34.57
2018-11-29T15:17:43.990Z,34.97
2018-11-29T15:20:14.982Z,29.20
2018-11-29T15:22:43.602Z,30.85
2018-11-29T15:25:12.006Z,38.13
2018-11-29T15:27:40.446Z,34.67
2018-11-29T15:30:10.688Z,39.45
2018-11-29T15:32:39.100Z,38.50
2018-11-29T15:35:07.964Z,37.30
2018-11-29T15:37:36.700Z,36.73
2018-11-29T15:40:07.890Z,36.60
2018-11-29T15:42:36.352Z,30.27
2018-11-29T15:45:06.582Z,37.77
2018-11-29T15:47:35.003Z,31.60
2018-11-29T15:50:03.688Z,32.43
2018-11-29T15:52:32.083Z,37.77
2018-11-29T15:55:00.503Z,48.07
2018-11-29T15:57:34.544Z,39.00
2018-11-29T15:59:57.360Z,34.00
2018-11-29T16:02:25.773Z,33.90
2018-11-29T16:04:54.206Z,30.93
2018-11-29T16:07:23.034Z,34.83
2018-11-29T16:09:51.564Z,33.93
2018-11-29T16:12:19.986Z,33.03
2018-11-29T16:14:48.454Z,38.47
2018-11-29T16:17:16.961Z,31.97
2018-11-29T16:19:45.331Z,34.30
2018-11-29T16:22:13.838Z,33.27
2018-11-29T16:24:42.317Z,32.50
2018-11-29T16:27:10.759Z,37.03
2018-11-29T16:29:39.222Z,37.97
2018-11-29T16:32:08.551Z,32.17
2018-11-29T16:34:36.943Z,33.00
2018-11-29T16:37:05.514Z,35.20
2018-11-29T16:39:33.933Z,34.97
2018-11-29T16:42:02.500Z,38.40
2018-11-29T16:44:30.914Z,49.48
2018-11-29T16:46:59.540Z,54.70
2018-11-29T16:49:27.960Z,83.30
2018-11-29T16:51:56.386Z,58.33
2018-11-29T16:54:24.794Z,56.58
2018-11-29T16:56:53.359Z,39.97
2018-11-29T16:59:21.780Z,41.85
2018-11-29T17:01:50.297Z,35.30
2018-11-29T17:04:18.695Z,42.83
2018-11-29T17:06:47.175Z,32.42
2018-11-29T17:09:15.563Z,39.90
2018-11-29T17:11:44.001Z,38.95
2018-11-29T17:14:12.432Z,33.05
2018-11-29T17:16:40.800Z,37.85
2018-11-29T17:19:09.279Z,50.73
2018-11-29T17:21:37.755Z,33.30
2018-11-29T17:24:06.176Z,40.30
2018-11-29T17:26:34.649Z,116.57
2018-11-29T17:29:03.146Z,63.85
2018-11-29T17:31:31.595Z,45.40
2018-11-29T17:34:00.071Z,47.55
2018-11-29T17:36:28.427Z,45.90
2018-11-29T17:38:56.842Z,40.70
2018-11-29T17:41:25.209Z,48.68
2018-11-29T17:43:53.580Z,43.65
2018-11-29T17:46:21.990Z,43.87
2018-11-29T17:48:50.418Z,46.53
2018-11-29T17:51:18.884Z,48.95
2018-11-29T17:53:47.265Z,51.80
2018-11-29T17:56:15.679Z,48.95
2018-11-29T17:58:44.178Z,51.88
2018-11-29T18:01:12.611Z,46.30
2018-11-29T18:03:41.097Z,48.92
2018-11-29T18:06:09.503Z,47.00
2018-11-29T18:08:37.952Z,40.85
2018-11-29T18:11:07.415Z,46.58
2018-11-29T18:13:37.014Z,45.98
2018-11-29T18:16:06.188Z,42.33
2018-11-29T18:18:34.575Z,50.12
2018-11-29T18:21:03.178Z,41.35
2018-11-29T18:23:31.803Z,47.08
2018-11-29T18:26:00.246Z,42.43
2018-11-29T18:28:28.695Z,47.53
2018-11-29T18:30:57.110Z,63.50
2018-11-29T18:33:25.553Z,53.58
2018-11-29T18:35:54.025Z,45.90
2018-11-29T18:38:22.504Z,42.70
2018-11-29T18:40:50.974Z,43.75
2018-11-29T18:43:19.404Z,50.60
2018-11-29T18:45:48.055Z,46.53
2018-11-29T18:48:16.540Z,45.90
2018-11-29T18:50:44.917Z,49.88
2018-11-29T18:53:13.701Z,44.93
2018-11-29T18:55:42.111Z,48.10
2018-11-29T18:58:10.648Z,48.05
2018-11-29T19:00:39.187Z,48.92
2018-11-29T19:03:08.262Z,50.88
2018-11-29T19:05:36.706Z,48.55
2018-11-29T19:08:05.885Z,42.98
2018-11-29T19:10:34.407Z,44.38
2018-11-29T19:13:11.520Z,42.40
2018-11-29T19:15:40.059Z,43.15
2018-11-29T19:18:19.925Z,38.73
2018-11-29T19:20:54.822Z,41.18
2018-11-29T19:23:23.492Z,38.08
2018-11-29T19:25:52.090Z,39.80
2018-11-29T19:28:20.514Z,34.65
2018-11-29T19:30:48.860Z,42.80
2018-11-29T19:33:19.491Z,40.75
2018-11-29T19:35:49.058Z,47.48
2018-11-29T19:38:19.375Z,37.67
2018-11-29T19:40:47.931Z,38.02
2018-11-29T19:43:16.376Z,41.33
2018-11-29T19:45:44.855Z,36.40
2018-11-29T19:48:13.295Z,38.60
2018-11-29T19:50:41.862Z,45.83
2018-11-29T19:53:20.236Z,43.85
2018-11-29T19:55:49.744Z,42.23
2018-11-29T19:58:18.160Z,36.95
2018-11-29T20:00:46.749Z,40.43
2018-11-29T20:03:15.221Z,39.20
2018-11-29T20:05:43.730Z,42.90
2018-11-29T20:08:12.262Z,43.02
2018-11-29T20:10:40.877Z,40.33
2018-11-29T20:13:10.967Z,43.28
2018-11-29T20:15:40.843Z,43.28
2018-11-29T20:18:10.760Z,40.60
2018-11-29T20:20:39.210Z,37.08
2018-11-29T20:23:08.838Z,39.45
2018-11-29T20:25:37.266Z,37.80
2018-11-29T20:28:06.219Z,36.40
2018-11-29T20:30:35.267Z,39.88
2018-11-29T20:33:03.901Z,39.85
2018-11-29T20:35:32.399Z,37.17
2018-11-29T20:38:00.860Z,38.78
2018-11-29T20:40:30.946Z,36.77
2018-11-29T20:43:00.334Z,38.40
2018-11-29T20:45:33.761Z,39.03
2018-11-29T20:48:04.572Z,34.92
2018-11-29T20:50:33.062Z,39.30
2018-11-29T20:53:01.516Z,36.93
2018-11-29T20:55:31.327Z,34.50
2018-11-29T20:57:59.850Z,34.85
2018-11-29T21:00:28.347Z,38.85
2018-11-29T21:02:57.142Z,37.10
2018-11-29T21:05:25.806Z,42.25
2018-11-29T21:07:59.204Z,37.10
2018-11-29T21:10:28.040Z,45.50
2018-11-29T21:12:56.519Z,36.15
2018-11-29T21:15:24.999Z,39.73
2018-11-29T21:17:53.669Z,40.85
2018-11-29T21:20:22.129Z,40.35
2018-11-29T21:22:51.478Z,38.78
2018-11-29T21:25:22.252Z,35.30
2018-11-29T21:27:50.939Z,44.83
2018-11-29T21:30:19.417Z,46.73
2018-11-29T21:32:48.277Z,45.08
2018-11-29T21:35:18.916Z,40.88
2018-11-29T21:37:47.390Z,41.80
2018-11-29T21:40:18.645Z,38.88
2018-11-29T21:42:47.202Z,37.30
2018-11-29T21:45:15.860Z,41.65
2018-11-29T21:47:44.438Z,45.83
2018-11-29T21:50:12.898Z,43.52
2018-11-29T21:52:41.370Z,43.33
2018-11-29T21:55:09.770Z,39.13
2018-11-29T21:57:38.291Z,46.77
2018-11-29T22:00:17.561Z,46.50
2018-11-29T22:02:53.202Z,44.10
2018-11-29T22:05:21.747Z,46.83
2018-11-29T22:07:50.364Z,42.75
2018-11-29T22:10:18.758Z,39.78
2018-11-29T22:12:47.150Z,38.40
2018-11-29T22:15:15.645Z,42.30
2018-11-29T22:18:21.995Z,41.13
2018-11-29T22:20:53.523Z,42.00
2018-11-29T22:23:21.977Z,44.50
2018-11-29T22:25:50.540Z,40.80
2018-11-29T22:28:18.914Z,39.08
2018-11-29T22:30:47.298Z,37.98
2018-11-29T22:33:15.672Z,43.92
2018-11-29T22:35:44.125Z,39.38
2018-11-29T22:38:12.545Z,35.28
2018-11-29T22:40:41.016Z,44.40
2018-11-29T22:43:09.404Z,36.00
2018-11-29T22:45:37.781Z,42.55
2018-11-29T22:48:06.279Z,36.00
2018-11-29T22:50:34.682Z,33.70
2018-11-29T22:53:03.086Z,40.05
2018-11-29T22:55:31.529Z,36.28
2018-11-29T22:57:59.862Z,36.17
2018-11-29T23:00:32.453Z,42.05
2018-11-29T23:03:00.797Z,34.63
2018-11-29T23:05:29.285Z,35.28
2018-11-29T23:07:57.971Z,38.42
2018-11-29T23:10:26.349Z,34.92
2018-11-29T23:12:54.692Z,31.37
2018-11-29T23:15:23.103Z,36.23
2018-11-29T23:17:51.504Z,38.98
2018-11-29T23:20:19.949Z,38.53
2018-11-29T23:22:48.351Z,39.78
2018-11-29T23:25:16.726Z,29.95
2018-11-29T23:27:45.151Z,38.05
2018-11-29T23:30:15.561Z,31.52
2018-11-29T23:32:44.187Z,36.95
2018-11-29T23:35:13.442Z,33.98
2018-11-29T23:37:41.861Z,34.10
2018-11-29T23:40:15.044Z,32.90
2018-11-29T23:42:43.490Z,41.75
2018-11-29T23:45:12.631Z,39.80
2018-11-29T23:47:41.087Z,29.92
2018-11-29T23:50:17.160Z,29.85
2018-11-29T23:52:45.765Z,33.65
2018-11-29T23:55:17.206Z,33.20
2018-11-29T23:57:45.556Z,34.13
